sensor_id;sensor_type;location;lat;lon;timestamp;P1;durP1;ratioP1;P2;durP2;ratioP2
37701;SDS011;23548;51.196;6.838;2022-09-13T00:00:26;9.77;;;6.70;;
37701;SDS011;23548;51.196;6.838;2022-09-13T00:02:51;11.40;;;7.60;;
37701;SDS011;23548;51.196;6.838;2022-09-13T00:05:17;9.57;;;6.70;;
37701;SDS011;23548;51.196;6.838;2022-09-13T00:07:43;10.18;;;6.65;;
37701;SDS011;23548;51.196;6.838;2022-09-13T00:10:08;9.18;;;7.20;;
37701;SDS011;23548;51.196;6.838;2022-09-13T00:12:34;12.25;;;7.35;;
37701;SDS011;23548;51.196;6.838;2022-09-13T00:15:00;8.70;;;7.30;;
37701;SDS011;23548;51.196;6.838;2022-09-13T00:17:26;10.18;;;7.20;;
37701;SDS011;23548;51.196;6.838;2022-09-13T00:19:51;10.20;;;7.35;;
37701;SDS011;23548;51.196;6.838;2022-09-13T00:22:17;11.73;;;7.55;;
37701;SDS011;23548;51.196;6.838;2022-09-13T00:24:43;9.10;;;7.10;;
37701;SDS011;23548;51.196;6.838;2022-09-13T00:27:09;9.48;;;7.40;;
37701;SDS011;23548;51.196;6.838;2022-09-13T00:29:36;10.38;;;6.97;;
37701;SDS011;23548;51.196;6.838;2022-09-13T00:32:02;9.98;;;7.03;;
37701;SDS011;23548;51.196;6.838;2022-09-13T00:34:27;10.88;;;6.32;;
37701;SDS011;23548;51.196;6.838;2022-09-13T00:36:53;9.18;;;7.07;;
37701;SDS011;23548;51.196;6.838;2022-09-13T00:39:19;8.30;;;6.85;;
37701;SDS011;23548;51.196;6.838;2022-09-13T00:41:44;8.43;;;6.45;;
37701;SDS011;23548;51.196;6.838;2022-09-13T00:47:14;8.25;;;6.65;;
37701;SDS011;23548;51.196;6.838;2022-09-13T00:49:55;7.90;;;6.55;;
37701;SDS011;23548;51.196;6.838;2022-09-13T00:52:32;8.43;;;6.70;;
37701;SDS011;23548;51.196;6.838;2022-09-13T00:55:00;17.38;;;8.00;;
37701;SDS011;23548;51.196;6.838;2022-09-13T00:57:30;10.93;;;6.55;;
37701;SDS011;23548;51.196;6.838;2022-09-13T01:00:07;9.30;;;7.03;;
37701;SDS011;23548;51.196;6.838;2022-09-13T01:02:43;8.68;;;6.70;;
37701;SDS011;23548;51.196;6.838;2022-09-13T01:05:17;10.60;;;7.30;;
37701;SDS011;23548;51.196;6.838;2022-09-13T01:07:48;12.23;;;6.95;;
37701;SDS011;23548;51.196;6.838;2022-09-13T01:10:14;8.40;;;7.57;;
37701;SDS011;23548;51.196;6.838;2022-09-13T01:15:18;11.20;;;7.20;;
37701;SDS011;23548;51.196;6.838;2022-09-13T01:17:44;14.18;;;7.35;;
37701;SDS011;23548;51.196;6.838;2022-09-13T01:20:10;15.30;;;7.28;;
37701;SDS011;23548;51.196;6.838;2022-09-13T01:31:20;8.82;;;7.25;;
37701;SDS011;23548;51.196;6.838;2022-09-13T01:34:30;9.23;;;6.68;;
37701;SDS011;23548;51.196;6.838;2022-09-13T01:42:51;12.27;;;7.90;;
37701;SDS011;23548;51.196;6.838;2022-09-13T01:56:31;9.38;;;7.22;;
37701;SDS011;23548;51.196;6.838;2022-09-13T01:59:15;9.75;;;6.82;;
37701;SDS011;23548;51.196;6.838;2022-09-13T02:04:51;12.93;;;7.13;;
37701;SDS011;23548;51.196;6.838;2022-09-13T02:07:42;12.80;;;7.55;;
37701;SDS011;23548;51.196;6.838;2022-09-13T02:11:03;12.70;;;7.78;;
37701;SDS011;23548;51.196;6.838;2022-09-13T02:13:11;9.55;;;7.57;;
37701;SDS011;23548;51.196;6.838;2022-09-13T02:15:45;9.75;;;7.50;;
37701;SDS011;23548;51.196;6.838;2022-09-13T02:18:17;10.88;;;7.40;;
37701;SDS011;23548;51.196;6.838;2022-09-13T02:21:26;9.50;;;7.20;;
37701;SDS011;23548;51.196;6.838;2022-09-13T02:23:54;10.23;;;7.15;;
37701;SDS011;23548;51.196;6.838;2022-09-13T02:26:26;9.90;;;7.68;;
37701;SDS011;23548;51.196;6.838;2022-09-13T02:28:54;7.60;;;6.80;;
37701;SDS011;23548;51.196;6.838;2022-09-13T02:31:25;11.00;;;7.28;;
37701;SDS011;23548;51.196;6.838;2022-09-13T02:33:59;10.05;;;7.32;;
37701;SDS011;23548;51.196;6.838;2022-09-13T02:36:30;8.50;;;6.38;;
37701;SDS011;23548;51.196;6.838;2022-09-13T02:38:59;9.23;;;7.63;;
37701;SDS011;23548;51.196;6.838;2022-09-13T02:46:52;12.05;;;7.25;;
37701;SDS011;23548;51.196;6.838;2022-09-13T02:55:19;12.68;;;7.38;;
37701;SDS011;23548;51.196;6.838;2022-09-13T02:58:11;10.30;;;7.63;;
37701;SDS011;23548;51.196;6.838;2022-09-13T03:00:41;13.07;;;7.75;;
37701;SDS011;23548;51.196;6.838;2022-09-13T03:03:08;15.25;;;7.55;;
37701;SDS011;23548;51.196;6.838;2022-09-13T03:05:36;14.68;;;8.77;;
37701;SDS011;23548;51.196;6.838;2022-09-13T03:08:02;11.98;;;8.35;;
37701;SDS011;23548;51.196;6.838;2022-09-13T03:10:33;14.90;;;8.55;;
37701;SDS011;23548;51.196;6.838;2022-09-13T03:13:38;13.73;;;8.48;;
37701;SDS011;23548;51.196;6.838;2022-09-13T03:30:00;12.68;;;9.10;;
37701;SDS011;23548;51.196;6.838;2022-09-13T03:32:31;14.90;;;9.68;;
37701;SDS011;23548;51.196;6.838;2022-09-13T03:35:07;15.02;;;9.68;;
37701;SDS011;23548;51.196;6.838;2022-09-13T03:40:46;16.05;;;9.45;;
37701;SDS011;23548;51.196;6.838;2022-09-13T03:43:30;16.63;;;10.05;;
37701;SDS011;23548;51.196;6.838;2022-09-13T03:46:14;16.45;;;10.07;;
37701;SDS011;23548;51.196;6.838;2022-09-13T03:48:45;12.85;;;9.25;;
37701;SDS011;23548;51.196;6.838;2022-09-13T03:51:12;12.82;;;8.85;;
37701;SDS011;23548;51.196;6.838;2022-09-13T03:53:40;13.05;;;9.43;;
37701;SDS011;23548;51.196;6.838;2022-09-13T03:56:15;11.95;;;8.70;;
37701;SDS011;23548;51.196;6.838;2022-09-13T03:58:44;13.55;;;9.27;;
37701;SDS011;23548;51.196;6.838;2022-09-13T04:01:15;13.13;;;8.88;;
37701;SDS011;23548;51.196;6.838;2022-09-13T04:03:44;12.48;;;8.98;;
37701;SDS011;23548;51.196;6.838;2022-09-13T04:06:09;10.40;;;9.00;;
37701;SDS011;23548;51.196;6.838;2022-09-13T04:08:35;13.85;;;9.20;;
37701;SDS011;23548;51.196;6.838;2022-09-13T04:11:01;13.75;;;9.05;;
37701;SDS011;23548;51.196;6.838;2022-09-13T04:13:27;12.60;;;8.55;;
37701;SDS011;23548;51.196;6.838;2022-09-13T04:15:53;10.20;;;8.23;;
37701;SDS011;23548;51.196;6.838;2022-09-13T04:18:19;9.00;;;8.02;;
37701;SDS011;23548;51.196;6.838;2022-09-13T04:20:52;12.27;;;8.77;;
37701;SDS011;23548;51.196;6.838;2022-09-13T04:23:19;13.35;;;8.55;;
37701;SDS011;23548;51.196;6.838;2022-09-13T04:25:45;11.93;;;8.23;;
37701;SDS011;23548;51.196;6.838;2022-09-13T04:28:11;14.60;;;8.40;;
37701;SDS011;23548;51.196;6.838;2022-09-13T04:30:36;11.70;;;8.27;;
37701;SDS011;23548;51.196;6.838;2022-09-13T04:33:02;11.68;;;7.93;;
37701;SDS011;23548;51.196;6.838;2022-09-13T04:35:28;10.93;;;8.07;;
37701;SDS011;23548;51.196;6.838;2022-09-13T04:37:54;11.52;;;8.10;;
37701;SDS011;23548;51.196;6.838;2022-09-13T04:40:23;10.57;;;9.45;;
37701;SDS011;23548;51.196;6.838;2022-09-13T04:42:49;11.55;;;8.98;;
37701;SDS011;23548;51.196;6.838;2022-09-13T04:45:15;12.90;;;9.88;;
37701;SDS011;23548;51.196;6.838;2022-09-13T04:47:41;12.48;;;9.93;;
37701;SDS011;23548;51.196;6.838;2022-09-13T04:50:07;11.77;;;9.50;;
37701;SDS011;23548;51.196;6.838;2022-09-13T04:52:33;15.52;;;9.98;;
37701;SDS011;23548;51.196;6.838;2022-09-13T04:54:59;11.98;;;9.48;;
37701;SDS011;23548;51.196;6.838;2022-09-13T04:57:27;15.38;;;10.38;;
37701;SDS011;23548;51.196;6.838;2022-09-13T04:59:53;17.38;;;10.40;;
37701;SDS011;23548;51.196;6.838;2022-09-13T05:02:18;14.70;;;10.48;;
37701;SDS011;23548;51.196;6.838;2022-09-13T05:04:44;14.50;;;10.80;;
37701;SDS011;23548;51.196;6.838;2022-09-13T05:07:10;14.82;;;10.00;;
37701;SDS011;23548;51.196;6.838;2022-09-13T05:09:36;11.73;;;9.70;;
37701;SDS011;23548;51.196;6.838;2022-09-13T05:12:02;16.48;;;10.40;;
37701;SDS011;23548;51.196;6.838;2022-09-13T05:14:28;18.63;;;10.18;;
37701;SDS011;23548;51.196;6.838;2022-09-13T05:16:53;10.75;;;9.40;;
37701;SDS011;23548;51.196;6.838;2022-09-13T05:19:19;12.90;;;9.88;;
37701;SDS011;23548;51.196;6.838;2022-09-13T05:21:45;13.55;;;10.27;;
37701;SDS011;23548;51.196;6.838;2022-09-13T05:24:11;13.23;;;8.88;;
37701;SDS011;23548;51.196;6.838;2022-09-13T05:26:37;12.23;;;9.50;;
37701;SDS011;23548;51.196;6.838;2022-09-13T05:29:03;11.88;;;10.10;;
37701;SDS011;23548;51.196;6.838;2022-09-13T05:31:33;13.77;;;8.98;;
37701;SDS011;23548;51.196;6.838;2022-09-13T05:34:01;16.38;;;9.70;;
37701;SDS011;23548;51.196;6.838;2022-09-13T05:36:29;13.25;;;9.73;;
37701;SDS011;23548;51.196;6.838;2022-09-13T05:38:55;16.02;;;9.90;;
37701;SDS011;23548;51.196;6.838;2022-09-13T05:41:21;25.13;;;11.20;;
37701;SDS011;23548;51.196;6.838;2022-09-13T05:43:47;12.45;;;9.45;;
37701;SDS011;23548;51.196;6.838;2022-09-13T05:46:14;11.70;;;9.00;;
37701;SDS011;23548;51.196;6.838;2022-09-13T05:48:41;16.10;;;9.60;;
37701;SDS011;23548;51.196;6.838;2022-09-13T05:53:47;12.43;;;9.38;;
37701;SDS011;23548;51.196;6.838;2022-09-13T05:56:18;16.40;;;10.18;;
37701;SDS011;23548;51.196;6.838;2022-09-13T05:58:48;15.63;;;9.38;;
37701;SDS011;23548;51.196;6.838;2022-09-13T06:01:16;14.65;;;9.85;;
37701;SDS011;23548;51.196;6.838;2022-09-13T06:03:51;12.93;;;9.25;;
37701;SDS011;23548;51.196;6.838;2022-09-13T06:06:19;14.68;;;9.63;;
37701;SDS011;23548;51.196;6.838;2022-09-13T06:08:46;14.40;;;9.18;;
37701;SDS011;23548;51.196;6.838;2022-09-13T06:11:12;12.95;;;9.43;;
37701;SDS011;23548;51.196;6.838;2022-09-13T06:13:39;12.57;;;8.80;;
37701;SDS011;23548;51.196;6.838;2022-09-13T06:16:09;13.65;;;8.95;;
37701;SDS011;23548;51.196;6.838;2022-09-13T06:18:36;10.35;;;8.55;;
37701;SDS011;23548;51.196;6.838;2022-09-13T06:21:03;12.32;;;8.55;;
37701;SDS011;23548;51.196;6.838;2022-09-13T06:23:33;12.68;;;8.95;;
37701;SDS011;23548;51.196;6.838;2022-09-13T06:26:07;16.42;;;9.13;;
37701;SDS011;23548;51.196;6.838;2022-09-13T06:28:34;18.95;;;9.35;;
37701;SDS011;23548;51.196;6.838;2022-09-13T06:31:01;17.17;;;9.90;;
37701;SDS011;23548;51.196;6.838;2022-09-13T06:33:29;15.70;;;9.90;;
37701;SDS011;23548;51.196;6.838;2022-09-13T06:35:59;17.58;;;9.43;;
37701;SDS011;23548;51.196;6.838;2022-09-13T06:38:26;20.15;;;9.27;;
37701;SDS011;23548;51.196;6.838;2022-09-13T06:41:05;17.35;;;9.50;;
37701;SDS011;23548;51.196;6.838;2022-09-13T06:43:35;20.60;;;9.65;;
37701;SDS011;23548;51.196;6.838;2022-09-13T06:46:06;16.80;;;9.40;;
37701;SDS011;23548;51.196;6.838;2022-09-13T06:48:35;15.68;;;8.90;;
37701;SDS011;23548;51.196;6.838;2022-09-13T06:51:03;14.57;;;8.65;;
37701;SDS011;23548;51.196;6.838;2022-09-13T06:53:32;14.50;;;8.77;;
37701;SDS011;23548;51.196;6.838;2022-09-13T06:56:32;17.05;;;8.75;;
37701;SDS011;23548;51.196;6.838;2022-09-13T06:58:54;16.05;;;8.68;;
37701;SDS011;23548;51.196;6.838;2022-09-13T07:01:22;14.27;;;9.55;;
37701;SDS011;23548;51.196;6.838;2022-09-13T07:03:53;13.90;;;9.07;;
37701;SDS011;23548;51.196;6.838;2022-09-13T07:06:22;12.95;;;8.60;;
37701;SDS011;23548;51.196;6.838;2022-09-13T07:08:51;13.85;;;9.20;;
37701;SDS011;23548;51.196;6.838;2022-09-13T07:11:18;13.73;;;9.13;;
37701;SDS011;23548;51.196;6.838;2022-09-13T07:13:49;13.70;;;8.68;;
37701;SDS011;23548;51.196;6.838;2022-09-13T07:16:16;13.00;;;9.00;;
37701;SDS011;23548;51.196;6.838;2022-09-13T07:18:43;13.15;;;8.65;;
37701;SDS011;23548;51.196;6.838;2022-09-13T07:21:09;15.90;;;9.25;;
37701;SDS011;23548;51.196;6.838;2022-09-13T07:23:36;13.27;;;9.02;;
37701;SDS011;23548;51.196;6.838;2022-09-13T07:26:04;14.13;;;8.82;;
37701;SDS011;23548;51.196;6.838;2022-09-13T07:28:31;15.45;;;8.75;;
37701;SDS011;23548;51.196;6.838;2022-09-13T07:31:03;15.48;;;8.52;;
37701;SDS011;23548;51.196;6.838;2022-09-13T07:33:36;12.15;;;8.55;;
37701;SDS011;23548;51.196;6.838;2022-09-13T07:36:03;15.07;;;9.20;;
37701;SDS011;23548;51.196;6.838;2022-09-13T07:38:37;11.90;;;8.68;;
37701;SDS011;23548;51.196;6.838;2022-09-13T07:41:05;11.55;;;8.20;;
37701;SDS011;23548;51.196;6.838;2022-09-13T07:43:33;15.63;;;8.38;;
37701;SDS011;23548;51.196;6.838;2022-09-13T07:46:04;11.90;;;7.43;;
37701;SDS011;23548;51.196;6.838;2022-09-13T07:48:32;14.18;;;8.45;;
37701;SDS011;23548;51.196;6.838;2022-09-13T07:53:27;14.50;;;8.10;;
37701;SDS011;23548;51.196;6.838;2022-09-13T07:55:53;17.15;;;9.40;;
37701;SDS011;23548;51.196;6.838;2022-09-13T07:58:24;11.55;;;8.35;;
37701;SDS011;23548;51.196;6.838;2022-09-13T08:00:49;16.23;;;8.07;;
37701;SDS011;23548;51.196;6.838;2022-09-13T08:03:15;11.52;;;8.45;;
37701;SDS011;23548;51.196;6.838;2022-09-13T08:05:41;13.32;;;7.95;;
37701;SDS011;23548;51.196;6.838;2022-09-13T08:08:07;10.52;;;8.43;;
37701;SDS011;23548;51.196;6.838;2022-09-13T08:10:33;16.35;;;10.00;;
37701;SDS011;23548;51.196;6.838;2022-09-13T08:12:59;11.80;;;8.45;;
37701;SDS011;23548;51.196;6.838;2022-09-13T08:15:25;15.70;;;8.93;;
37701;SDS011;23548;51.196;6.838;2022-09-13T08:17:52;12.82;;;8.77;;
37701;SDS011;23548;51.196;6.838;2022-09-13T08:20:18;13.05;;;8.43;;
37701;SDS011;23548;51.196;6.838;2022-09-13T08:22:44;20.60;;;8.55;;
37701;SDS011;23548;51.196;6.838;2022-09-13T08:25:11;12.75;;;8.18;;
37701;SDS011;23548;51.196;6.838;2022-09-13T08:27:36;15.10;;;8.10;;
37701;SDS011;23548;51.196;6.838;2022-09-13T08:30:02;15.85;;;9.25;;
37701;SDS011;23548;51.196;6.838;2022-09-13T08:32:29;18.90;;;8.18;;
37701;SDS011;23548;51.196;6.838;2022-09-13T08:34:55;16.90;;;8.07;;
37701;SDS011;23548;51.196;6.838;2022-09-13T08:37:21;19.38;;;8.05;;
37701;SDS011;23548;51.196;6.838;2022-09-13T08:39:47;10.98;;;7.68;;
37701;SDS011;23548;51.196;6.838;2022-09-13T08:42:16;10.35;;;7.75;;
37701;SDS011;23548;51.196;6.838;2022-09-13T08:44:57;14.30;;;7.75;;
37701;SDS011;23548;51.196;6.838;2022-09-13T08:50:14;9.82;;;6.93;;
37701;SDS011;23548;51.196;6.838;2022-09-13T08:55:42;8.55;;;5.78;;
37701;SDS011;23548;51.196;6.838;2022-09-13T08:58:50;11.25;;;6.03;;
37701;SDS011;23548;51.196;6.838;2022-09-13T09:01:52;11.80;;;5.97;;
37701;SDS011;23548;51.196;6.838;2022-09-13T09:04:25;7.80;;;5.82;;
37701;SDS011;23548;51.196;6.838;2022-09-13T09:07:01;8.52;;;5.50;;
37701;SDS011;23548;51.196;6.838;2022-09-13T09:09:43;9.15;;;5.30;;
37701;SDS011;23548;51.196;6.838;2022-09-13T09:12:18;11.70;;;5.45;;
37701;SDS011;23548;51.196;6.838;2022-09-13T09:21:09;7.38;;;5.57;;
37701;SDS011;23548;51.196;6.838;2022-09-13T09:26:45;11.30;;;8.18;;
37701;SDS011;23548;51.196;6.838;2022-09-13T09:29:25;9.50;;;5.75;;
37701;SDS011;23548;51.196;6.838;2022-09-13T09:31:56;7.43;;;5.50;;
37701;SDS011;23548;51.196;6.838;2022-09-13T09:37:20;8.65;;;5.53;;
37701;SDS011;23548;51.196;6.838;2022-09-13T09:39:49;12.45;;;5.75;;
37701;SDS011;23548;51.196;6.838;2022-09-13T09:42:18;10.80;;;5.95;;
37701;SDS011;23548;51.196;6.838;2022-09-13T09:44:52;8.25;;;6.32;;
37701;SDS011;23548;51.196;6.838;2022-09-13T09:47:30;8.27;;;6.10;;
37701;SDS011;23548;51.196;6.838;2022-09-13T09:55:28;15.68;;;6.68;;
37701;SDS011;23548;51.196;6.838;2022-09-13T09:58:03;10.50;;;6.07;;
37701;SDS011;23548;51.196;6.838;2022-09-13T10:00:32;8.80;;;5.82;;
37701;SDS011;23548;51.196;6.838;2022-09-13T10:03:07;11.57;;;6.55;;
37701;SDS011;23548;51.196;6.838;2022-09-13T10:05:42;9.45;;;6.55;;
37701;SDS011;23548;51.196;6.838;2022-09-13T10:08:20;13.45;;;8.07;;
37701;SDS011;23548;51.196;6.838;2022-09-13T10:10:57;11.45;;;7.20;;
37701;SDS011;23548;51.196;6.838;2022-09-13T10:13:26;12.05;;;6.65;;
37701;SDS011;23548;51.196;6.838;2022-09-13T10:16:04;14.60;;;7.38;;
37701;SDS011;23548;51.196;6.838;2022-09-13T10:18:35;12.82;;;7.80;;
37701;SDS011;23548;51.196;6.838;2022-09-13T10:23:41;8.95;;;6.22;;
37701;SDS011;23548;51.196;6.838;2022-09-13T10:26:09;8.73;;;6.38;;
37701;SDS011;23548;51.196;6.838;2022-09-13T10:31:34;10.65;;;6.90;;
37701;SDS011;23548;51.196;6.838;2022-09-13T10:37:00;9.60;;;5.72;;
37701;SDS011;23548;51.196;6.838;2022-09-13T10:39:27;11.93;;;6.82;;
37701;SDS011;23548;51.196;6.838;2022-09-13T10:42:01;8.20;;;6.38;;
37701;SDS011;23548;51.196;6.838;2022-09-13T10:44:45;7.68;;;5.75;;
37701;SDS011;23548;51.196;6.838;2022-09-13T10:47:21;10.40;;;6.15;;
37701;SDS011;23548;51.196;6.838;2022-09-13T10:49:54;10.18;;;6.45;;
37701;SDS011;23548;51.196;6.838;2022-09-13T10:52:26;9.65;;;6.15;;
37701;SDS011;23548;51.196;6.838;2022-09-13T10:54:55;10.57;;;5.10;;
37701;SDS011;23548;51.196;6.838;2022-09-13T11:00:57;9.25;;;4.20;;
37701;SDS011;23548;51.196;6.838;2022-09-13T11:11:42;6.70;;;5.57;;
37701;SDS011;23548;51.196;6.838;2022-09-13T11:52:56;7.30;;;5.05;;
37701;SDS011;23548;51.196;6.838;2022-09-13T11:55:44;16.15;;;6.47;;
37701;SDS011;23548;51.196;6.838;2022-09-13T11:58:30;12.73;;;6.63;;
37701;SDS011;23548;51.196;6.838;2022-09-13T12:00:59;8.55;;;6.20;;
37701;SDS011;23548;51.196;6.838;2022-09-13T12:03:32;11.50;;;6.70;;
37701;SDS011;23548;51.196;6.838;2022-09-13T12:06:18;10.07;;;5.82;;
37701;SDS011;23548;51.196;6.838;2022-09-13T12:08:53;11.75;;;6.65;;
37701;SDS011;23548;51.196;6.838;2022-09-13T12:11:34;9.68;;;6.55;;
37701;SDS011;23548;51.196;6.838;2022-09-13T12:14:10;8.18;;;6.18;;
37701;SDS011;23548;51.196;6.838;2022-09-13T12:16:40;9.23;;;5.65;;
37701;SDS011;23548;51.196;6.838;2022-09-13T12:19:17;6.90;;;5.65;;
37701;SDS011;23548;51.196;6.838;2022-09-13T12:21:50;6.75;;;4.47;;
37701;SDS011;23548;51.196;6.838;2022-09-13T12:29:21;10.85;;;5.65;;
37701;SDS011;23548;51.196;6.838;2022-09-13T12:31:59;8.63;;;4.82;;
37701;SDS011;23548;51.196;6.838;2022-09-13T13:01:25;8.18;;;4.45;;
37701;SDS011;23548;51.196;6.838;2022-09-13T13:08:55;7.28;;;4.90;;
37701;SDS011;23548;51.196;6.838;2022-09-13T13:11:27;8.43;;;4.70;;
37701;SDS011;23548;51.196;6.838;2022-09-13T13:14:04;7.78;;;5.75;;
37701;SDS011;23548;51.196;6.838;2022-09-13T13:16:36;10.63;;;5.10;;
37701;SDS011;23548;51.196;6.838;2022-09-13T13:19:29;11.93;;;4.93;;
37701;SDS011;23548;51.196;6.838;2022-09-13T13:25:23;5.97;;;5.15;;
37701;SDS011;23548;51.196;6.838;2022-09-13T13:28:22;7.65;;;5.50;;
37701;SDS011;23548;51.196;6.838;2022-09-13T13:31:07;7.03;;;5.32;;
37701;SDS011;23548;51.196;6.838;2022-09-13T13:39:07;7.97;;;5.45;;
37701;SDS011;23548;51.196;6.838;2022-09-13T13:44:01;6.68;;;4.68;;
37701;SDS011;23548;51.196;6.838;2022-09-13T13:46:47;6.60;;;5.15;;
37701;SDS011;23548;51.196;6.838;2022-09-13T13:55:04;8.48;;;5.57;;
37701;SDS011;23548;51.196;6.838;2022-09-13T14:00:45;10.48;;;4.78;;
37701;SDS011;23548;51.196;6.838;2022-09-13T14:03:21;8.52;;;4.68;;
37701;SDS011;23548;51.196;6.838;2022-09-13T14:05:51;8.20;;;4.95;;
37701;SDS011;23548;51.196;6.838;2022-09-13T14:19:46;6.32;;;4.43;;
37701;SDS011;23548;51.196;6.838;2022-09-13T14:27:23;6.20;;;4.60;;
37701;SDS011;23548;51.196;6.838;2022-09-13T14:30:00;6.38;;;4.20;;
37701;SDS011;23548;51.196;6.838;2022-09-13T14:32:29;8.07;;;3.97;;
37701;SDS011;23548;51.196;6.838;2022-09-13T14:35:05;5.75;;;3.83;;
37701;SDS011;23548;51.196;6.838;2022-09-13T14:37:45;7.20;;;3.88;;
37701;SDS011;23548;51.196;6.838;2022-09-13T14:40:16;4.43;;;3.88;;
37701;SDS011;23548;51.196;6.838;2022-09-13T14:42:45;6.68;;;3.95;;
37701;SDS011;23548;51.196;6.838;2022-09-13T14:45:12;7.15;;;4.85;;
37701;SDS011;23548;51.196;6.838;2022-09-13T14:50:29;8.05;;;4.40;;
37701;SDS011;23548;51.196;6.838;2022-09-13T14:56:31;8.55;;;4.75;;
37701;SDS011;23548;51.196;6.838;2022-09-13T14:59:01;5.68;;;4.85;;
37701;SDS011;23548;51.196;6.838;2022-09-13T15:01:31;8.02;;;4.30;;
37701;SDS011;23548;51.196;6.838;2022-09-13T15:03:59;10.20;;;4.78;;
37701;SDS011;23548;51.196;6.838;2022-09-13T15:06:28;6.78;;;5.15;;
37701;SDS011;23548;51.196;6.838;2022-09-13T15:11:41;5.50;;;4.53;;
37701;SDS011;23548;51.196;6.838;2022-09-13T15:16:52;8.38;;;4.05;;
37701;SDS011;23548;51.196;6.838;2022-09-13T15:19:34;5.05;;;3.90;;
37701;SDS011;23548;51.196;6.838;2022-09-13T15:24:46;11.00;;;4.55;;
37701;SDS011;23548;51.196;6.838;2022-09-13T15:27:19;6.55;;;3.85;;
37701;SDS011;23548;51.196;6.838;2022-09-13T15:29:51;6.15;;;3.97;;
37701;SDS011;23548;51.196;6.838;2022-09-13T15:32:23;5.30;;;4.43;;
37701;SDS011;23548;51.196;6.838;2022-09-13T15:35:16;4.65;;;3.97;;
37701;SDS011;23548;51.196;6.838;2022-09-13T15:37:58;5.70;;;4.03;;
37701;SDS011;23548;51.196;6.838;2022-09-13T15:40:25;6.25;;;3.80;;
37701;SDS011;23548;51.196;6.838;2022-09-13T15:43:05;6.13;;;3.58;;
37701;SDS011;23548;51.196;6.838;2022-09-13T15:45:31;9.10;;;3.83;;
37701;SDS011;23548;51.196;6.838;2022-09-13T15:47:57;7.20;;;4.32;;
37701;SDS011;23548;51.196;6.838;2022-09-13T15:50:26;5.15;;;4.10;;
37701;SDS011;23548;51.196;6.838;2022-09-13T15:52:55;5.53;;;4.18;;
37701;SDS011;23548;51.196;6.838;2022-09-13T15:55:22;6.95;;;4.07;;
37701;SDS011;23548;51.196;6.838;2022-09-13T15:57:49;6.07;;;3.88;;
37701;SDS011;23548;51.196;6.838;2022-09-13T16:00:16;5.35;;;4.30;;
37701;SDS011;23548;51.196;6.838;2022-09-13T16:02:52;5.07;;;3.80;;
37701;SDS011;23548;51.196;6.838;2022-09-13T16:05:18;6.35;;;3.97;;
37701;SDS011;23548;51.196;6.838;2022-09-13T16:07:44;7.72;;;4.10;;
37701;SDS011;23548;51.196;6.838;2022-09-13T16:10:11;5.38;;;3.88;;
37701;SDS011;23548;51.196;6.838;2022-09-13T16:12:39;5.68;;;4.18;;
37701;SDS011;23548;51.196;6.838;2022-09-13T16:15:06;6.85;;;4.40;;
37701;SDS011;23548;51.196;6.838;2022-09-13T16:17:32;7.32;;;4.47;;
37701;SDS011;23548;51.196;6.838;2022-09-13T16:19:59;7.28;;;4.45;;
37701;SDS011;23548;51.196;6.838;2022-09-13T16:22:25;7.22;;;4.90;;
37701;SDS011;23548;51.196;6.838;2022-09-13T16:24:51;8.70;;;4.85;;
37701;SDS011;23548;51.196;6.838;2022-09-13T16:27:17;11.40;;;5.20;;
37701;SDS011;23548;51.196;6.838;2022-09-13T16:29:45;10.73;;;5.00;;
37701;SDS011;23548;51.196;6.838;2022-09-13T16:32:11;10.20;;;4.65;;
37701;SDS011;23548;51.196;6.838;2022-09-13T16:34:37;6.95;;;4.88;;
37701;SDS011;23548;51.196;6.838;2022-09-13T16:37:03;16.85;;;6.07;;
37701;SDS011;23548;51.196;6.838;2022-09-13T16:39:29;11.68;;;5.18;;
37701;SDS011;23548;51.196;6.838;2022-09-13T16:41:54;9.65;;;5.20;;
37701;SDS011;23548;51.196;6.838;2022-09-13T16:44:20;8.88;;;5.05;;
37701;SDS011;23548;51.196;6.838;2022-09-13T16:46:46;10.52;;;6.00;;
37701;SDS011;23548;51.196;6.838;2022-09-13T16:49:12;18.55;;;7.10;;
37701;SDS011;23548;51.196;6.838;2022-09-13T16:51:37;8.35;;;5.53;;
37701;SDS011;23548;51.196;6.838;2022-09-13T16:54:03;12.25;;;6.28;;
37701;SDS011;23548;51.196;6.838;2022-09-13T16:56:29;12.43;;;6.38;;
37701;SDS011;23548;51.196;6.838;2022-09-13T16:58:56;7.88;;;6.55;;
37701;SDS011;23548;51.196;6.838;2022-09-13T17:01:24;8.88;;;7.32;;
37701;SDS011;23548;51.196;6.838;2022-09-13T17:03:52;11.68;;;7.15;;
37701;SDS011;23548;51.196;6.838;2022-09-13T17:06:19;10.23;;;6.72;;
37701;SDS011;23548;51.196;6.838;2022-09-13T17:08:49;8.82;;;7.63;;
37701;SDS011;23548;51.196;6.838;2022-09-13T17:11:18;14.90;;;8.48;;
37701;SDS011;23548;51.196;6.838;2022-09-13T17:13:46;11.80;;;8.90;;
37701;SDS011;23548;51.196;6.838;2022-09-13T17:16:20;10.88;;;8.27;;
37701;SDS011;23548;51.196;6.838;2022-09-13T17:18:55;15.20;;;10.40;;
37701;SDS011;23548;51.196;6.838;2022-09-13T17:21:23;13.60;;;9.65;;
37701;SDS011;23548;51.196;6.838;2022-09-13T17:23:50;12.40;;;10.18;;
37701;SDS011;23548;51.196;6.838;2022-09-13T17:26:16;13.65;;;10.13;;
37701;SDS011;23548;51.196;6.838;2022-09-13T17:28:42;13.52;;;10.73;;
37701;SDS011;23548;51.196;6.838;2022-09-13T17:31:08;13.93;;;10.98;;
37701;SDS011;23548;51.196;6.838;2022-09-13T17:33:34;14.13;;;11.07;;
37701;SDS011;23548;51.196;6.838;2022-09-13T17:36:00;15.88;;;11.50;;
37701;SDS011;23548;51.196;6.838;2022-09-13T17:38:31;14.77;;;11.98;;
37701;SDS011;23548;51.196;6.838;2022-09-13T17:40:58;15.45;;;11.15;;
37701;SDS011;23548;51.196;6.838;2022-09-13T17:43:26;16.05;;;11.32;;
37701;SDS011;23548;51.196;6.838;2022-09-13T17:45:51;14.35;;;11.65;;
37701;SDS011;23548;51.196;6.838;2022-09-13T17:48:17;16.17;;;12.75;;
37701;SDS011;23548;51.196;6.838;2022-09-13T17:50:43;13.70;;;10.80;;
37701;SDS011;23548;51.196;6.838;2022-09-13T17:53:09;15.68;;;13.00;;
37701;SDS011;23548;51.196;6.838;2022-09-13T17:55:36;17.20;;;12.95;;
37701;SDS011;23548;51.196;6.838;2022-09-13T17:58:09;15.90;;;12.57;;
37701;SDS011;23548;51.196;6.838;2022-09-13T18:00:35;16.55;;;12.88;;
37701;SDS011;23548;51.196;6.838;2022-09-13T18:03:00;20.00;;;14.55;;
37701;SDS011;23548;51.196;6.838;2022-09-13T18:05:26;19.65;;;13.23;;
37701;SDS011;23548;51.196;6.838;2022-09-13T18:07:52;16.02;;;13.20;;
37701;SDS011;23548;51.196;6.838;2022-09-13T18:10:18;19.17;;;14.35;;
37701;SDS011;23548;51.196;6.838;2022-09-13T18:12:43;22.63;;;14.02;;
37701;SDS011;23548;51.196;6.838;2022-09-13T18:15:09;22.65;;;15.80;;
37701;SDS011;23548;51.196;6.838;2022-09-13T18:17:36;20.52;;;15.40;;
37701;SDS011;23548;51.196;6.838;2022-09-13T18:20:01;20.80;;;16.67;;
37701;SDS011;23548;51.196;6.838;2022-09-13T18:22:27;19.40;;;14.00;;
37701;SDS011;23548;51.196;6.838;2022-09-13T18:24:53;17.77;;;15.15;;
37701;SDS011;23548;51.196;6.838;2022-09-13T18:27:19;17.52;;;14.48;;
37701;SDS011;23548;51.196;6.838;2022-09-13T18:29:45;20.05;;;13.88;;
37701;SDS011;23548;51.196;6.838;2022-09-13T18:32:10;17.15;;;12.98;;
37701;SDS011;23548;51.196;6.838;2022-09-13T18:34:36;15.52;;;12.70;;
37701;SDS011;23548;51.196;6.838;2022-09-13T18:37:02;14.60;;;13.00;;
37701;SDS011;23548;51.196;6.838;2022-09-13T18:39:28;17.10;;;13.75;;
37701;SDS011;23548;51.196;6.838;2022-09-13T18:41:54;17.90;;;12.15;;
37701;SDS011;23548;51.196;6.838;2022-09-13T18:44:20;18.65;;;12.38;;
37701;SDS011;23548;51.196;6.838;2022-09-13T18:46:45;18.48;;;13.43;;
37701;SDS011;23548;51.196;6.838;2022-09-13T18:49:11;20.13;;;13.68;;
37701;SDS011;23548;51.196;6.838;2022-09-13T18:51:40;16.15;;;12.68;;